FLI450 EKVG-ENAL
Flight info
| Callsign | FLI450 |
|---|---|
| Flight time | N/A |
| Altitude | 29000 |
| Route | M070F290 ODEVA1A ODEVA DCT ERSER/N0412F290 DCT TUMIM TUMIM4R |
| Aircraft | RJ1H/M-SDFGIRWY/LB1 |
Departure
| Time | N/A |
|---|---|
| Airport | Vágar Airport (EKVG) |
Arrival
| Time | 2026-04-29 20:28 |
|---|---|
| Airport | Ålesund Airport (ENAL) |
| Time | Latitude | Longitude | Altitude | Speed | Heading |
|---|---|---|---|---|---|
| 2026-04-29 20:16 | 62.33234 | 6.51888 | 6426 ft | 265 kts | 18° |
| 2026-04-29 20:16 | 62.34952 | 6.53372 | 6305 ft | 265 kts | 19° |
| 2026-04-29 20:16 | 62.36636 | 6.54943 | 6108 ft | 264 kts | 21° |
| 2026-04-29 20:17 | 62.38322 | 6.56575 | 6032 ft | 268 kts | 20° |
| 2026-04-29 20:17 | 62.40008 | 6.58234 | 5993 ft | 261 kts | 20° |
| 2026-04-29 20:17 | 62.41678 | 6.59842 | 6005 ft | 274 kts | 19° |
| 2026-04-29 20:17 | 62.43454 | 6.61523 | 6033 ft | 280 kts | 19° |
| 2026-04-29 20:18 | 62.45225 | 6.63208 | 6005 ft | 279 kts | 20° |
| 2026-04-29 20:18 | 62.46982 | 6.64993 | 5983 ft | 280 kts | 22° |
| 2026-04-29 20:18 | 62.48696 | 6.66858 | 5894 ft | 270 kts | 22° |
| 2026-04-29 20:18 | 62.50334 | 6.68677 | 5812 ft | 258 kts | 23° |
| 2026-04-29 20:19 | 62.51898 | 6.70434 | 5765 ft | 250 kts | 23° |
| 2026-04-29 20:19 | 62.53420 | 6.72114 | 5771 ft | 248 kts | 22° |
| 2026-04-29 20:19 | 62.54990 | 6.73820 | 5725 ft | 251 kts | 22° |
| 2026-04-29 20:19 | 62.56553 | 6.75450 | 5533 ft | 252 kts | 15° |
| 2026-04-29 20:20 | 62.58236 | 6.75666 | 5379 ft | 239 kts | 341° |
| 2026-04-29 20:20 | 62.59817 | 6.74587 | 5160 ft | 239 kts | 336° |
| 2026-04-29 20:20 | 62.61368 | 6.73325 | 4793 ft | 239 kts | 333° |
| 2026-04-29 20:20 | 62.62885 | 6.71902 | 4666 ft | 237 kts | 332° |
| 2026-04-29 20:21 | 62.64374 | 6.70411 | 4631 ft | 234 kts | 330° |
| 2026-04-29 20:21 | 62.65777 | 6.68702 | 4592 ft | 227 kts | 312° |
| 2026-04-29 20:21 | 62.66478 | 6.65794 | 4611 ft | 218 kts | 274° |
| 2026-04-29 20:21 | 62.66420 | 6.62517 | 4633 ft | 218 kts | 258° |
| 2026-04-29 20:22 | 62.66072 | 6.59314 | 4651 ft | 218 kts | 254° |
| 2026-04-29 20:22 | 62.65645 | 6.56137 | 4462 ft | 223 kts | 252° |
| 2026-04-29 20:22 | 62.65063 | 6.52997 | 4155 ft | 224 kts | 243° |
| 2026-04-29 20:22 | 62.64404 | 6.49928 | 3859 ft | 224 kts | 245° |
| 2026-04-29 20:23 | 62.63758 | 6.46843 | 3559 ft | 224 kts | 242° |
| 2026-04-29 20:23 | 62.63087 | 6.43808 | 3257 ft | 213 kts | 244° |
| 2026-04-29 20:23 | 62.62489 | 6.40981 | 2992 ft | 203 kts | 243° |
| 2026-04-29 20:23 | 62.61900 | 6.38270 | 2739 ft | 188 kts | 244° |
| 2026-04-29 20:24 | 62.61378 | 6.35838 | 2459 ft | 171 kts | 244° |
| 2026-04-29 20:24 | 62.60892 | 6.33585 | 2232 ft | 162 kts | 244° |
| 2026-04-29 20:24 | 62.60429 | 6.31428 | 2013 ft | 156 kts | 244° |
| 2026-04-29 20:24 | 62.59978 | 6.29325 | 1797 ft | 153 kts | 244° |
| 2026-04-29 20:25 | 62.59543 | 6.27287 | 1571 ft | 140 kts | 245° |
| 2026-04-29 20:25 | 62.59154 | 6.25484 | 1370 ft | 124 kts | 245° |
| 2026-04-29 20:25 | 62.58799 | 6.23829 | 1192 ft | 119 kts | 246° |
| 2026-04-29 20:25 | 62.58456 | 6.22172 | 1017 ft | 120 kts | 246° |
| 2026-04-29 20:26 | 62.58103 | 6.20555 | 887 ft | 119 kts | 245° |
| 2026-04-29 20:26 | 62.57745 | 6.18939 | 748 ft | 116 kts | 245° |
| 2026-04-29 20:26 | 62.57411 | 6.17356 | 619 ft | 115 kts | 247° |
| 2026-04-29 20:26 | 62.57074 | 6.15792 | 437 ft | 114 kts | 245° |
| 2026-04-29 20:27 | 62.56744 | 6.14262 | 273 ft | 110 kts | 245° |
| 2026-04-29 20:27 | 62.56529 | 6.13272 | 172 ft | 109 kts | 246° |
| 2026-04-29 20:27 | 62.56116 | 6.11367 | 83 ft | 96 kts | 246° |
| 2026-04-29 20:27 | 62.55882 | 6.10289 | 54 ft | 61 kts | 245° |
| 2026-04-29 20:28 | 62.55761 | 6.09731 | 52 ft | 29 kts | 245° |
| 2026-04-29 20:28 | 62.55710 | 6.09450 | 45 ft | 11 kts | 262° |
| 2026-04-29 20:28 | 62.55700 | 6.09466 | 45 ft | 7 kts | 63° |
| 2026-04-29 20:28 | 62.55731 | 6.09598 | 48 ft | 13 kts | 64° |
| 2026-04-29 20:29 | 62.55776 | 6.09796 | 54 ft | 17 kts | 64° |
| 2026-04-29 20:29 | 62.55831 | 6.10056 | 56 ft | 19 kts | 65° |
| 2026-04-29 20:29 | 62.55887 | 6.10317 | 60 ft | 21 kts | 64° |
| 2026-04-29 20:29 | 62.55950 | 6.10632 | 72 ft | 25 kts | 87° |
| 2026-04-29 20:30 | 62.55915 | 6.10959 | 79 ft | 20 kts | 103° |
| 2026-04-29 20:30 | 62.55920 | 6.11231 | 77 ft | 15 kts | 63° |
| 2026-04-29 20:30 | 62.55943 | 6.11337 | 76 ft | 4 kts | 94° |
| 2026-04-29 20:30 | 62.55928 | 6.11357 | 70 ft | 4 kts | 152° |
| 2026-04-29 20:31 | 62.55914 | 6.11372 | 77 ft | 1 kts | 153° |
| 2026-04-29 20:31 | 62.55900 | 6.11388 | 70 ft | 1 kts | 154° |
| 2026-04-29 20:31 | 62.55898 | 6.11390 | 76 ft | 0 kts | 154° |
| 2026-04-29 20:31 | 62.55897 | 6.11392 | 76 ft | 0 kts | 154° |